createdAt,value
2017-11-28T00:01:59.881Z,0.40
2017-11-28T00:04:27.376Z,0.40
2017-11-28T00:06:54.878Z,0.40
2017-11-28T00:09:22.384Z,0.30
2017-11-28T00:11:49.901Z,0.40
2017-11-28T00:14:17.395Z,0.50
2017-11-28T00:16:44.879Z,0.40
2017-11-28T00:19:12.382Z,0.40
2017-11-28T00:21:39.900Z,0.30
2017-11-28T00:24:07.413Z,0.40
2017-11-28T00:26:34.921Z,0.50
2017-11-28T00:29:02.873Z,0.40
2017-11-28T00:31:30.500Z,0.50
2017-11-28T00:33:58.011Z,0.30
2017-11-28T00:36:25.496Z,0.40
2017-11-28T00:38:53.009Z,0.30
2017-11-28T00:41:20.527Z,0.40
2017-11-28T00:43:48.108Z,0.63
2017-11-28T00:46:15.602Z,0.40
2017-11-28T00:48:43.097Z,0.43
2017-11-28T00:51:10.618Z,0.40
2017-11-28T00:53:38.141Z,0.40
2017-11-28T00:56:05.664Z,0.40
2017-11-28T00:58:33.182Z,0.40
2017-11-28T01:01:00.679Z,0.40
2017-11-28T01:03:28.184Z,0.30
2017-11-28T01:05:55.686Z,0.50
2017-11-28T01:08:23.191Z,0.30
2017-11-28T01:10:50.703Z,0.33
2017-11-28T01:13:18.187Z,0.40
2017-11-28T01:15:45.689Z,0.43
2017-11-28T01:18:13.735Z,0.50
2017-11-28T01:20:41.231Z,0.50
2017-11-28T01:23:08.712Z,0.40
2017-11-28T01:25:36.234Z,0.60
2017-11-28T01:28:03.758Z,0.43
2017-11-28T01:30:31.259Z,0.40
2017-11-28T01:32:58.800Z,0.40
2017-11-28T01:35:26.387Z,0.63
2017-11-28T01:37:53.987Z,0.70
2017-11-28T01:40:21.630Z,0.50
2017-11-28T01:42:49.210Z,0.50
2017-11-28T01:45:16.702Z,0.50
2017-11-28T01:47:44.198Z,0.50
2017-11-28T01:50:11.694Z,0.40
2017-11-28T01:52:39.211Z,0.50
2017-11-28T01:55:06.794Z,0.60
2017-11-28T01:57:34.286Z,0.50
2017-11-28T02:00:02.614Z,0.57
2017-11-28T02:02:30.134Z,0.37
2017-11-28T02:04:57.647Z,0.57
2017-11-28T02:07:25.195Z,0.53
2017-11-28T02:09:52.688Z,0.50
2017-11-28T02:12:20.172Z,0.63
2017-11-28T02:14:47.664Z,0.60
2017-11-28T02:17:15.171Z,0.50
2017-11-28T02:19:42.659Z,0.60
2017-11-28T02:22:10.311Z,0.40
2017-11-28T02:24:37.860Z,0.53
2017-11-28T02:27:06.228Z,0.73
2017-11-28T02:29:33.863Z,0.50
2017-11-28T02:32:01.419Z,0.43
2017-11-28T02:34:28.975Z,0.43
2017-11-28T02:36:56.552Z,0.53
2017-11-28T02:39:24.040Z,0.50
2017-11-28T02:41:51.548Z,0.40
2017-11-28T02:44:19.034Z,0.50
2017-11-28T02:46:46.524Z,0.90
2017-11-28T02:49:15.700Z,0.70
2017-11-28T02:51:44.783Z,0.50
2017-11-28T02:54:12.274Z,0.50
2017-11-28T02:56:39.779Z,0.60
2017-11-28T02:59:08.755Z,0.50
2017-11-28T03:01:40.081Z,0.80
2017-11-28T03:04:14.323Z,0.60
2017-11-28T03:06:47.497Z,0.50
2017-11-28T03:09:28.788Z,0.60
2017-11-28T03:11:57.546Z,0.60
2017-11-28T03:14:38.652Z,0.67
2017-11-28T03:17:10.509Z,0.63
2017-11-28T03:19:48.445Z,0.50
2017-11-28T03:22:32.019Z,1.00
2017-11-28T03:25:05.192Z,0.57
2017-11-28T03:27:37.233Z,0.57
2017-11-28T03:30:09.788Z,0.73
2017-11-28T03:32:40.498Z,0.80
2017-11-28T03:35:13.216Z,0.50
2017-11-28T03:37:45.208Z,0.60
2017-11-28T03:40:18.161Z,0.80
2017-11-28T03:42:50.505Z,0.80
2017-11-28T03:48:35.845Z,0.60
2017-11-28T03:51:09.057Z,0.60
2017-11-28T03:53:39.913Z,0.57
2017-11-28T03:56:07.525Z,0.70
2017-11-28T03:58:36.017Z,0.60
2017-11-28T04:01:04.839Z,0.87
2017-11-28T04:03:37.121Z,0.70
2017-11-28T04:06:04.883Z,0.77
2017-11-28T04:08:32.767Z,0.70
2017-11-28T04:11:02.936Z,0.80
2017-11-28T04:13:31.283Z,0.43
2017-11-28T04:16:04.361Z,0.70
2017-11-28T04:18:36.065Z,0.70
2017-11-28T04:21:05.969Z,0.60
2017-11-28T04:23:37.568Z,0.97
2017-11-28T04:26:09.904Z,0.80
2017-11-28T04:28:37.745Z,0.60
2017-11-28T04:31:07.163Z,0.80
2017-11-28T04:33:34.649Z,0.80
2017-11-28T04:36:04.468Z,0.60
2017-11-28T04:38:34.388Z,0.70
2017-11-28T04:41:05.644Z,0.60
2017-11-28T04:43:35.316Z,0.97
2017-11-28T04:46:05.348Z,0.50
2017-11-28T04:48:38.728Z,0.77
2017-11-28T04:51:09.969Z,0.70
2017-11-28T04:53:41.343Z,0.80
2017-11-28T04:56:13.551Z,0.50
2017-11-28T04:58:45.563Z,0.70
2017-11-28T05:01:17.470Z,0.57
2017-11-28T05:03:49.418Z,0.90
2017-11-28T05:06:19.080Z,0.50
2017-11-28T05:08:46.876Z,0.63
2017-11-28T05:11:14.588Z,0.60
2017-11-28T05:13:42.151Z,4.90
2017-11-28T05:16:10.415Z,1.43
2017-11-28T05:18:37.941Z,0.60
2017-11-28T05:21:07.596Z,0.67
2017-11-28T05:23:35.509Z,0.97
2017-11-28T05:26:04.011Z,1.03
2017-11-28T05:28:32.415Z,0.60
2017-11-28T05:31:02.253Z,0.90
2017-11-28T05:33:30.954Z,0.70
2017-11-28T05:35:59.005Z,1.00
2017-11-28T05:38:26.652Z,0.80
2017-11-28T05:40:57.102Z,0.97
2017-11-28T05:43:27.221Z,25.67
2017-11-28T05:45:56.784Z,0.80
2017-11-28T05:48:24.412Z,0.60
2017-11-28T05:50:52.409Z,0.70
2017-11-28T05:53:37.489Z,0.70
2017-11-28T05:56:05.271Z,0.70
2017-11-28T05:58:34.308Z,0.63
2017-11-28T06:01:03.777Z,1.33
2017-11-28T06:03:31.414Z,1.00
2017-11-28T06:06:07.831Z,0.63
2017-11-28T06:08:35.370Z,0.73
2017-11-28T06:11:02.880Z,0.70
2017-11-28T06:14:26.139Z,0.90
2017-11-28T06:17:47.323Z,0.60
2017-11-28T06:20:14.831Z,0.80
2017-11-28T06:23:53.171Z,0.63
2017-11-28T06:26:20.663Z,0.70
2017-11-28T06:28:57.008Z,0.60
2017-11-28T06:31:36.246Z,0.50
2017-11-28T06:34:03.901Z,0.70
2017-11-28T06:36:31.384Z,0.50
2017-11-28T06:42:23.054Z,0.57
2017-11-28T06:48:01.799Z,0.60
2017-11-28T06:50:30.017Z,0.70
2017-11-28T06:52:57.675Z,0.70
2017-11-28T06:55:25.388Z,0.40
2017-11-28T06:57:52.975Z,0.60
2017-11-28T07:00:20.477Z,0.60
2017-11-28T07:02:50.203Z,0.60
2017-11-28T07:05:21.354Z,0.50
2017-11-28T07:07:52.194Z,0.50
2017-11-28T07:10:20.615Z,0.47
2017-11-28T07:12:48.665Z,0.50
2017-11-28T07:15:18.414Z,0.73
2017-11-28T07:17:46.499Z,0.70
2017-11-28T07:20:13.983Z,0.53
2017-11-28T07:23:20.207Z,0.53
2017-11-28T07:25:48.713Z,0.40
2017-11-28T07:28:18.555Z,1.37
2017-11-28T07:30:46.046Z,0.50
2017-11-28T07:33:14.981Z,0.43
2017-11-28T07:35:42.492Z,0.77
2017-11-28T07:38:10.605Z,0.50
2017-11-28T07:40:38.097Z,0.57
2017-11-28T07:43:44.798Z,0.50
2017-11-28T07:46:14.315Z,0.80
2017-11-28T07:48:41.819Z,0.70
2017-11-28T07:51:09.336Z,0.97
2017-11-28T07:53:36.843Z,0.50
2017-11-28T07:59:23.262Z,0.40
2017-11-28T08:01:53.808Z,0.50
2017-11-28T08:04:23.375Z,0.80
2017-11-28T08:06:54.020Z,0.50
2017-11-28T08:09:27.169Z,0.40
2017-11-28T08:12:00.616Z,0.77
2017-11-28T08:14:29.531Z,0.60
2017-11-28T08:17:01.433Z,0.70
2017-11-28T08:19:31.067Z,0.60
2017-11-28T08:22:03.792Z,0.50
2017-11-28T08:24:36.813Z,0.40
2017-11-28T08:27:08.143Z,0.50
2017-11-28T08:29:37.494Z,0.50
2017-11-28T08:32:10.467Z,0.50
2017-11-28T08:34:44.078Z,0.33
2017-11-28T08:37:15.857Z,0.60
2017-11-28T08:39:49.573Z,0.40
2017-11-28T08:42:19.093Z,0.40
2017-11-28T08:44:46.761Z,0.63
2017-11-28T08:47:19.180Z,0.40
2017-11-28T08:49:46.779Z,0.50
2017-11-28T08:52:17.485Z,0.53
2017-11-28T08:54:50.167Z,0.40
2017-11-28T08:57:20.681Z,0.60
2017-11-28T08:59:50.528Z,0.40
2017-11-28T09:02:18.927Z,0.60
2017-11-28T09:04:50.497Z,0.40
2017-11-28T09:07:18.128Z,0.40
2017-11-28T09:09:45.619Z,0.50
2017-11-28T09:12:13.231Z,0.50
2017-11-28T09:14:40.740Z,0.50
2017-11-28T09:17:08.259Z,0.63
2017-11-28T09:19:35.829Z,0.40
2017-11-28T09:22:03.472Z,0.60
2017-11-28T09:24:30.967Z,0.67
2017-11-28T09:26:58.463Z,0.40
2017-11-28T09:29:26.092Z,0.40
2017-11-28T09:31:53.585Z,0.47
2017-11-28T09:34:21.193Z,0.40
2017-11-28T09:36:48.712Z,0.40
2017-11-28T09:39:16.211Z,0.50
2017-11-28T09:41:43.725Z,0.77
2017-11-28T09:44:11.213Z,0.40
2017-11-28T09:46:38.734Z,0.47
2017-11-28T09:49:06.267Z,0.70
2017-11-28T09:51:33.786Z,0.70
2017-11-28T09:54:01.290Z,0.40
2017-11-28T09:56:28.799Z,0.63
2017-11-28T09:58:56.335Z,0.60
2017-11-28T10:01:23.849Z,0.60
2017-11-28T10:03:51.336Z,0.50
2017-11-28T10:06:18.861Z,0.60
2017-11-28T10:08:46.392Z,0.43
2017-11-28T10:11:13.881Z,0.50
2017-11-28T10:13:41.393Z,0.60
2017-11-28T10:16:08.883Z,0.50
2017-11-28T10:18:36.372Z,0.50
2017-11-28T10:21:03.872Z,0.50
2017-11-28T10:23:31.411Z,0.50
2017-11-28T10:25:58.901Z,0.40
2017-11-28T10:28:26.418Z,0.50
2017-11-28T10:30:53.911Z,0.43
2017-11-28T10:33:21.399Z,0.50
2017-11-28T10:35:48.898Z,0.40
2017-11-28T10:38:16.401Z,0.50
2017-11-28T10:40:43.900Z,0.40
2017-11-28T10:43:11.378Z,0.40
2017-11-28T10:45:38.905Z,0.50
2017-11-28T10:48:06.410Z,16.07
2017-11-28T10:50:33.918Z,0.40
2017-11-28T10:53:01.402Z,0.33
2017-11-28T10:55:28.900Z,0.40
2017-11-28T10:57:56.398Z,0.40
2017-11-28T11:00:23.908Z,0.50
2017-11-28T11:02:51.425Z,0.50
2017-11-28T11:05:18.931Z,0.60
2017-11-28T11:07:46.418Z,0.40
2017-11-28T11:10:13.911Z,0.40
2017-11-28T11:12:41.427Z,0.50
2017-11-28T11:15:08.917Z,0.40
2017-11-28T11:17:36.409Z,0.40
2017-11-28T11:20:03.899Z,0.43
2017-11-28T11:22:31.387Z,0.50
2017-11-28T11:24:58.875Z,0.40
2017-11-28T11:27:26.383Z,0.40
2017-11-28T11:29:53.907Z,0.50
2017-11-28T11:32:21.395Z,0.50
2017-11-28T11:34:48.905Z,0.50
2017-11-28T11:37:16.398Z,0.40
2017-11-28T11:39:43.893Z,0.30
2017-11-28T11:42:11.398Z,0.67
2017-11-28T11:44:38.877Z,0.60
2017-11-28T11:47:06.371Z,0.60
2017-11-28T11:49:33.865Z,0.40
2017-11-28T11:52:01.366Z,0.50
2017-11-28T11:54:28.906Z,0.50
2017-11-28T11:56:56.395Z,0.40
2017-11-28T11:59:23.899Z,0.40
2017-11-28T12:01:51.415Z,0.50
2017-11-28T12:04:18.905Z,0.40
2017-11-28T12:06:46.414Z,0.70
2017-11-28T12:09:14.012Z,0.40
2017-11-28T12:11:41.524Z,0.50
2017-11-28T12:14:09.022Z,0.50
2017-11-28T12:16:36.536Z,0.40
2017-11-28T12:19:04.027Z,0.40
2017-11-28T12:21:31.526Z,0.40
2017-11-28T12:23:59.068Z,0.60
2017-11-28T12:26:26.557Z,0.53
2017-11-28T12:28:54.078Z,0.50
2017-11-28T12:31:21.583Z,0.33
2017-11-28T12:33:49.106Z,0.40
2017-11-28T12:36:16.606Z,0.47
2017-11-28T12:38:44.100Z,0.40
2017-11-28T12:41:11.603Z,0.40
2017-11-28T12:43:39.103Z,0.40
2017-11-28T12:46:06.586Z,0.50
2017-11-28T12:48:34.093Z,0.40
2017-11-28T12:51:01.591Z,0.50
2017-11-28T12:53:29.090Z,0.50
2017-11-28T12:55:56.600Z,0.70
2017-11-28T12:58:24.087Z,1.10
2017-11-28T13:00:51.751Z,1.57
2017-11-28T13:03:19.234Z,0.40
2017-11-28T13:05:46.731Z,0.40
2017-11-28T13:08:14.229Z,0.40
2017-11-28T13:10:41.766Z,0.40
2017-11-28T13:13:09.297Z,0.40
2017-11-28T13:15:36.807Z,0.40
2017-11-28T13:18:04.294Z,0.40
2017-11-28T13:20:31.800Z,0.30
2017-11-28T13:22:59.314Z,0.40
2017-11-28T13:25:26.835Z,0.30
2017-11-28T13:27:54.316Z,0.40
2017-11-28T13:30:21.812Z,0.40
2017-11-28T13:32:49.311Z,0.30
2017-11-28T13:35:16.809Z,0.50
2017-11-28T13:37:44.308Z,0.37
2017-11-28T13:40:11.851Z,0.40
2017-11-28T13:42:39.356Z,0.40
2017-11-28T13:45:06.842Z,0.63
2017-11-28T13:47:34.341Z,0.40
2017-11-28T13:50:01.846Z,0.40
2017-11-28T13:52:29.343Z,0.47
2017-11-28T13:54:56.852Z,0.40
2017-11-28T13:57:24.359Z,0.30
2017-11-28T13:59:51.859Z,0.40
2017-11-28T14:02:19.351Z,0.30
2017-11-28T14:04:46.981Z,0.50
2017-11-28T14:07:14.473Z,0.43
2017-11-28T14:09:41.995Z,0.40
2017-11-28T14:12:09.602Z,0.37
2017-11-28T14:14:37.153Z,0.40
2017-11-28T14:17:04.639Z,0.30
2017-11-28T14:19:32.954Z,0.30
2017-11-28T14:25:06.017Z,0.37
2017-11-28T14:27:34.426Z,0.30
2017-11-28T14:30:05.003Z,0.30
2017-11-28T14:32:38.099Z,0.40
2017-11-28T14:35:11.206Z,0.40
2017-11-28T14:37:38.706Z,0.40
2017-11-28T14:40:06.188Z,0.40
2017-11-28T14:42:38.598Z,0.33
2017-11-28T14:48:12.338Z,0.80
2017-11-28T14:53:46.690Z,0.40
2017-11-28T14:56:14.569Z,0.40
2017-11-28T14:58:47.624Z,0.50
2017-11-28T15:01:20.618Z,0.40
2017-11-28T15:03:53.124Z,0.50
2017-11-28T15:09:46.443Z,0.70
2017-11-28T15:12:19.451Z,0.40
2017-11-28T15:14:52.490Z,0.50
2017-11-28T15:17:25.757Z,0.73
2017-11-28T15:19:54.235Z,0.70
2017-11-28T15:22:30.222Z,0.60
2017-11-28T15:25:02.753Z,0.70
2017-11-28T15:27:30.247Z,0.87
2017-11-28T15:29:57.774Z,0.60
2017-11-28T15:32:25.286Z,0.80
2017-11-28T15:34:52.775Z,1.23
2017-11-28T15:37:20.339Z,0.70
2017-11-28T15:39:47.908Z,0.77
2017-11-28T15:42:15.410Z,0.60
2017-11-28T15:44:42.898Z,1.23
2017-11-28T15:47:10.413Z,0.90
2017-11-28T15:49:37.915Z,1.60
2017-11-28T15:52:05.403Z,0.60
2017-11-28T15:54:32.930Z,0.53
2017-11-28T15:57:00.473Z,1.03
2017-11-28T15:59:27.993Z,0.93
2017-11-28T16:01:55.504Z,0.90
2017-11-28T16:04:23.004Z,1.00
2017-11-28T16:06:50.506Z,0.57
2017-11-28T16:09:18.010Z,0.50
2017-11-28T16:11:45.595Z,0.70
2017-11-28T16:14:13.101Z,0.60
2017-11-28T16:16:41.355Z,1.00
2017-11-28T16:19:08.870Z,0.57
2017-11-28T16:21:36.368Z,1.00
2017-11-28T16:24:03.880Z,0.60
2017-11-28T16:26:31.368Z,0.60
2017-11-28T16:28:58.872Z,0.70
2017-11-28T16:31:26.375Z,0.77
2017-11-28T16:33:53.859Z,0.50
2017-11-28T16:36:21.352Z,0.80
2017-11-28T16:38:48.862Z,0.60
2017-11-28T16:41:16.371Z,0.90
2017-11-28T16:43:43.890Z,1.40
2017-11-28T16:46:11.382Z,0.70
2017-11-28T16:48:38.871Z,0.70
2017-11-28T16:51:06.379Z,1.00
2017-11-28T16:53:33.871Z,0.83
2017-11-28T16:56:01.387Z,1.10
2017-11-28T16:58:28.994Z,0.80
2017-11-28T17:00:56.534Z,1.00
2017-11-28T17:03:24.032Z,0.70
2017-11-28T17:05:51.534Z,0.63
2017-11-28T17:08:19.022Z,0.90
2017-11-28T17:10:46.543Z,0.60
2017-11-28T17:13:14.043Z,0.70
2017-11-28T17:15:41.536Z,0.60
2017-11-28T17:18:09.083Z,0.60
2017-11-28T17:20:36.591Z,0.90
2017-11-28T17:23:04.145Z,0.67
2017-11-28T17:25:31.669Z,0.70
2017-11-28T17:27:59.185Z,0.70
2017-11-28T17:30:26.724Z,0.80
2017-11-28T17:32:54.228Z,0.70
2017-11-28T17:35:21.741Z,0.80
2017-11-28T17:37:49.270Z,0.83
2017-11-28T17:40:16.807Z,0.70
2017-11-28T17:42:44.304Z,0.87
2017-11-28T17:45:11.835Z,0.97
2017-11-28T17:47:39.451Z,0.80
2017-11-28T17:50:07.020Z,0.50
2017-11-28T17:52:34.553Z,0.70
2017-11-28T17:55:02.053Z,1.27
2017-11-28T17:57:29.560Z,2.60
2017-11-28T17:59:57.109Z,1.43
2017-11-28T18:02:24.667Z,3.73
2017-11-28T18:04:52.185Z,1.83
2017-11-28T18:07:19.700Z,1.10
2017-11-28T18:09:47.203Z,1.30
2017-11-28T18:12:14.689Z,1.00
2017-11-28T18:14:42.224Z,1.53
2017-11-28T18:17:09.741Z,1.20
2017-11-28T18:19:37.243Z,1.30
2017-11-28T18:22:04.757Z,1.17
2017-11-28T18:24:32.288Z,1.00
2017-11-28T18:26:59.806Z,0.90
2017-11-28T18:29:27.333Z,1.50
2017-11-28T18:31:54.849Z,1.10
2017-11-28T18:34:22.350Z,1.20
2017-11-28T18:36:49.937Z,1.47
2017-11-28T18:39:17.479Z,1.80
2017-11-28T18:41:44.979Z,1.30
2017-11-28T18:44:12.496Z,1.00
2017-11-28T18:46:40.001Z,0.90
2017-11-28T18:49:07.518Z,0.83
2017-11-28T18:51:35.043Z,0.80
2017-11-28T18:54:02.559Z,1.30
2017-11-28T18:56:30.103Z,0.90
2017-11-28T18:58:57.627Z,0.90
2017-11-28T19:01:25.238Z,1.10
2017-11-28T19:03:52.750Z,1.67
2017-11-28T19:06:20.257Z,1.10
2017-11-28T19:08:47.777Z,1.73
2017-11-28T19:11:15.300Z,1.57
2017-11-28T19:13:42.804Z,0.83
2017-11-28T19:16:10.322Z,1.47
2017-11-28T19:18:37.836Z,1.00
2017-11-28T19:21:05.349Z,1.60
2017-11-28T19:23:32.947Z,1.80
2017-11-28T19:26:00.436Z,1.53
2017-11-28T19:28:28.049Z,2.00
2017-11-28T19:30:55.570Z,2.43
2017-11-28T19:33:23.091Z,2.50
2017-11-28T19:35:50.596Z,3.30
2017-11-28T19:38:18.131Z,2.20
2017-11-28T19:40:45.651Z,2.40
2017-11-28T19:43:13.160Z,2.10
2017-11-28T19:45:40.686Z,2.97
2017-11-28T19:48:08.196Z,2.40
2017-11-28T19:50:35.732Z,2.60
2017-11-28T19:53:03.280Z,2.43
2017-11-28T19:55:30.960Z,1.97
2017-11-28T19:57:58.474Z,2.10
2017-11-28T20:00:26.050Z,2.03
2017-11-28T20:02:53.555Z,2.27
2017-11-28T20:05:21.168Z,1.90
2017-11-28T20:07:48.718Z,2.33
2017-11-28T20:10:16.235Z,2.10
2017-11-28T20:12:43.735Z,2.27
2017-11-28T20:15:11.253Z,1.83
2017-11-28T20:17:38.797Z,2.30
2017-11-28T20:20:06.303Z,1.90
2017-11-28T20:22:33.808Z,2.10
2017-11-28T20:25:01.314Z,2.27
2017-11-28T20:27:28.827Z,1.93
2017-11-28T20:29:56.347Z,2.27
2017-11-28T20:32:23.856Z,3.13
2017-11-28T20:34:51.345Z,2.40
2017-11-28T20:37:18.885Z,2.37
2017-11-28T20:39:46.427Z,2.70
2017-11-28T20:42:14.220Z,2.47
2017-11-28T20:44:41.875Z,2.03
2017-11-28T20:47:09.434Z,2.20
2017-11-28T20:49:36.953Z,3.27
2017-11-28T20:52:04.474Z,3.33
2017-11-28T20:54:31.974Z,2.90
2017-11-28T20:56:59.506Z,3.57
2017-11-28T20:59:27.096Z,3.10
2017-11-28T21:01:54.612Z,2.60
2017-11-28T21:04:22.141Z,2.90
2017-11-28T21:06:49.692Z,3.13
2017-11-28T21:09:17.247Z,2.87
2017-11-28T21:11:44.777Z,2.60
2017-11-28T21:14:12.287Z,2.53
2017-11-28T21:16:39.986Z,2.67
2017-11-28T21:19:07.481Z,1.97
2017-11-28T21:21:34.994Z,3.20
2017-11-28T21:24:02.485Z,2.60
2017-11-28T21:26:30.037Z,2.73
2017-11-28T21:28:57.527Z,3.00
2017-11-28T21:31:25.064Z,2.47
2017-11-28T21:33:52.621Z,2.30
2017-11-28T21:36:20.159Z,2.80
2017-11-28T21:38:47.685Z,3.20
2017-11-28T21:41:15.215Z,2.53
2017-11-28T21:43:42.745Z,2.70
2017-11-28T21:46:10.242Z,2.70
2017-11-28T21:48:37.756Z,2.67
2017-11-28T21:51:05.253Z,3.17
2017-11-28T21:53:32.744Z,3.07
2017-11-28T21:56:00.305Z,2.67
2017-11-28T21:58:27.830Z,2.57
2017-11-28T22:00:55.324Z,3.27
2017-11-28T22:03:22.824Z,4.20
2017-11-28T22:05:50.354Z,3.90
2017-11-28T22:08:17.873Z,4.07
2017-11-28T22:10:45.384Z,3.90
2017-11-28T22:13:12.898Z,3.87
2017-11-28T22:15:41.163Z,3.60
2017-11-28T22:18:08.742Z,3.97
2017-11-28T22:20:36.269Z,3.80
2017-11-28T22:23:03.784Z,4.13
2017-11-28T22:25:31.283Z,4.10
2017-11-28T22:27:58.794Z,4.50
2017-11-28T22:30:26.304Z,4.50
2017-11-28T22:32:53.802Z,4.70
2017-11-28T22:35:21.290Z,4.20
2017-11-28T22:37:48.807Z,4.10
2017-11-28T22:40:16.306Z,4.83
2017-11-28T22:42:43.794Z,4.33
2017-11-28T22:45:11.324Z,5.10
2017-11-28T22:47:38.818Z,5.53
2017-11-28T22:50:06.325Z,5.80
2017-11-28T22:52:33.814Z,6.30
2017-11-28T22:55:01.324Z,6.43
2017-11-28T22:57:28.864Z,6.83
2017-11-28T22:59:56.355Z,7.70
2017-11-28T23:02:23.859Z,6.67
2017-11-28T23:04:51.358Z,7.30
2017-11-28T23:07:18.879Z,7.50
2017-11-28T23:09:46.403Z,10.93
2017-11-28T23:12:14.033Z,11.13
2017-11-28T23:14:48.398Z,11.87
2017-11-28T23:17:15.899Z,11.10
2017-11-28T23:19:43.411Z,11.60
2017-11-28T23:22:10.906Z,10.93
2017-11-28T23:24:38.398Z,9.07
2017-11-28T23:27:05.945Z,7.17
2017-11-28T23:29:33.438Z,7.23
2017-11-28T23:32:00.941Z,7.00
2017-11-28T23:34:28.453Z,5.73
2017-11-28T23:36:56.002Z,7.00
2017-11-28T23:39:23.466Z,5.17
2017-11-28T23:41:50.971Z,4.83
2017-11-28T23:44:18.462Z,6.57
2017-11-28T23:46:45.966Z,6.93
2017-11-28T23:49:13.469Z,7.80
2017-11-28T23:51:40.978Z,6.00
2017-11-28T23:54:08.586Z,5.30
2017-11-28T23:56:36.118Z,5.50
2017-11-28T23:59:03.635Z,5.13
